createdAt,value
2018-07-15T00:00:41.319Z,4.20
2018-07-15T00:03:08.991Z,4.00
2018-07-15T00:05:36.540Z,4.07
2018-07-15T00:08:03.958Z,3.50
2018-07-15T00:10:32.759Z,3.80
2018-07-15T00:13:00.162Z,4.13
2018-07-15T00:15:27.584Z,4.10
2018-07-15T00:17:55.893Z,3.90
2018-07-15T00:20:23.265Z,4.27
2018-07-15T00:22:50.823Z,3.90
2018-07-15T00:25:18.276Z,4.00
2018-07-15T00:27:45.710Z,4.37
2018-07-15T00:30:13.156Z,3.83
2018-07-15T00:32:40.623Z,4.33
2018-07-15T00:35:08.088Z,4.20
2018-07-15T00:37:35.576Z,4.33
2018-07-15T00:40:02.987Z,4.27
2018-07-15T00:42:30.436Z,4.20
2018-07-15T00:44:58.019Z,4.10
2018-07-15T00:47:26.172Z,4.23
2018-07-15T00:49:53.838Z,4.10
2018-07-15T00:52:21.263Z,4.07
2018-07-15T00:54:48.693Z,4.40
2018-07-15T00:57:16.140Z,4.50
2018-07-15T00:59:43.911Z,4.30
2018-07-15T01:02:11.317Z,4.20
2018-07-15T01:04:38.887Z,3.97
2018-07-15T01:07:06.295Z,4.37
2018-07-15T01:09:33.675Z,4.03
2018-07-15T01:12:01.257Z,4.00
2018-07-15T01:14:28.687Z,4.50
2018-07-15T01:16:57.719Z,4.50
2018-07-15T01:19:25.151Z,4.60
2018-07-15T01:21:53.795Z,4.57
2018-07-15T01:24:21.207Z,4.83
2018-07-15T01:26:48.688Z,4.60
2018-07-15T01:29:16.098Z,4.40
2018-07-15T01:31:43.987Z,4.40
2018-07-15T01:34:12.289Z,4.73
2018-07-15T01:36:40.220Z,4.77
2018-07-15T01:39:07.628Z,4.90
2018-07-15T01:41:35.054Z,4.43
2018-07-15T01:44:02.453Z,4.40
2018-07-15T01:46:29.975Z,4.43
2018-07-15T01:48:57.353Z,4.70
2018-07-15T01:51:24.896Z,4.67
2018-07-15T01:53:52.311Z,4.63
2018-07-15T01:56:19.699Z,4.67
2018-07-15T01:58:47.247Z,4.70
2018-07-15T02:01:14.701Z,4.30
2018-07-15T02:03:42.416Z,4.67
2018-07-15T02:06:09.859Z,4.43
2018-07-15T02:08:37.303Z,5.17
2018-07-15T02:11:04.771Z,4.50
2018-07-15T02:13:32.906Z,4.57
2018-07-15T02:16:00.344Z,4.73
2018-07-15T02:18:27.835Z,4.47
2018-07-15T02:20:56.143Z,5.20
2018-07-15T02:23:24.273Z,4.87
2018-07-15T02:25:52.034Z,4.53
2018-07-15T02:28:19.435Z,4.83
2018-07-15T02:30:46.859Z,5.00
2018-07-15T02:33:14.293Z,4.77
2018-07-15T02:35:42.729Z,5.00
2018-07-15T02:38:10.167Z,4.70
2018-07-15T02:40:37.671Z,4.80
2018-07-15T02:43:05.395Z,4.70
2018-07-15T02:45:32.844Z,5.03
2018-07-15T02:48:00.231Z,4.40
2018-07-15T02:50:27.630Z,4.40
2018-07-15T02:52:55.017Z,4.37
2018-07-15T02:55:22.627Z,4.97
2018-07-15T02:57:50.764Z,4.80
2018-07-15T03:00:18.559Z,4.80
2018-07-15T03:02:46.270Z,4.60
2018-07-15T03:05:14.207Z,4.43
2018-07-15T03:07:41.864Z,4.23
2018-07-15T03:10:09.500Z,4.87
2018-07-15T03:12:37.376Z,5.00
2018-07-15T03:15:05.082Z,4.63
2018-07-15T03:17:32.565Z,4.97
2018-07-15T03:20:00.487Z,4.40
2018-07-15T03:22:27.863Z,4.73
2018-07-15T03:24:55.836Z,4.80
2018-07-15T03:27:23.315Z,4.97
2018-07-15T03:29:50.739Z,4.50
2018-07-15T03:32:18.199Z,4.87
2018-07-15T03:34:45.718Z,5.00
2018-07-15T03:37:13.122Z,4.47
2018-07-15T03:39:41.295Z,5.00
2018-07-15T03:42:08.700Z,4.90
2018-07-15T03:44:36.109Z,4.97
2018-07-15T03:47:03.579Z,4.57
2018-07-15T03:49:32.269Z,4.80
2018-07-15T03:51:59.706Z,5.17
2018-07-15T03:54:27.154Z,4.77
2018-07-15T03:56:54.551Z,4.60
2018-07-15T03:59:22.079Z,5.30
2018-07-15T04:01:49.452Z,5.10
2018-07-15T04:04:16.863Z,5.17
2018-07-15T04:06:44.455Z,5.23
2018-07-15T04:09:12.452Z,5.30
2018-07-15T04:11:39.883Z,5.57
2018-07-15T04:14:07.432Z,5.17
2018-07-15T04:16:34.895Z,5.50
2018-07-15T04:19:02.371Z,5.20
2018-07-15T04:21:30.119Z,5.50
2018-07-15T04:23:57.652Z,5.70
2018-07-15T04:26:25.098Z,4.80
2018-07-15T04:28:52.480Z,5.07
2018-07-15T04:31:20.571Z,5.87
2018-07-15T04:33:48.040Z,5.27
2018-07-15T04:36:15.431Z,5.70
2018-07-15T04:38:43.010Z,5.53
2018-07-15T04:41:10.468Z,5.20
2018-07-15T04:43:38.762Z,5.57
2018-07-15T04:46:06.214Z,5.43
2018-07-15T04:48:33.695Z,5.30
2018-07-15T04:51:01.131Z,5.33
2018-07-15T04:53:28.597Z,5.00
2018-07-15T04:55:56.697Z,5.37
2018-07-15T04:58:24.075Z,5.63
2018-07-15T05:00:51.480Z,5.40
2018-07-15T05:03:18.887Z,5.13
2018-07-15T05:05:46.298Z,5.10
2018-07-15T05:08:13.711Z,5.33
2018-07-15T05:10:41.163Z,5.60
2018-07-15T05:13:09.467Z,5.60
2018-07-15T05:15:36.935Z,5.50
2018-07-15T05:18:04.400Z,5.00
2018-07-15T05:20:31.863Z,5.20
2018-07-15T05:22:59.305Z,5.57
2018-07-15T05:25:26.771Z,5.67
2018-07-15T05:27:54.245Z,5.90
2018-07-15T05:30:21.981Z,5.93
2018-07-15T05:32:49.449Z,5.30
2018-07-15T05:35:17.611Z,5.80
2018-07-15T05:37:45.023Z,5.83
2018-07-15T05:40:12.459Z,5.53
2018-07-15T05:42:39.910Z,5.90
2018-07-15T05:45:07.340Z,6.00
2018-07-15T05:47:34.731Z,5.53
2018-07-15T05:50:02.284Z,5.87
2018-07-15T05:52:30.506Z,5.13
2018-07-15T05:54:57.894Z,5.60
2018-07-15T05:57:25.626Z,5.53
2018-07-15T05:59:53.012Z,5.57
2018-07-15T06:02:20.450Z,5.70
2018-07-15T06:04:47.957Z,5.80
2018-07-15T06:07:16.074Z,5.35
2018-07-15T06:09:43.987Z,5.75
2018-07-15T06:12:11.415Z,5.50
2018-07-15T06:14:39.275Z,5.67
2018-07-15T06:17:06.789Z,5.60
2018-07-15T06:19:34.215Z,5.58
2018-07-15T06:22:02.287Z,5.60
2018-07-15T06:24:29.723Z,5.30
2018-07-15T06:26:57.202Z,5.60
2018-07-15T06:29:25.559Z,5.47
2018-07-15T06:31:53.070Z,5.40
2018-07-15T06:34:21.123Z,5.42
2018-07-15T06:36:48.536Z,5.40
2018-07-15T06:39:17.231Z,4.95
2018-07-15T06:41:44.646Z,5.08
2018-07-15T06:44:12.135Z,5.20
2018-07-15T06:46:39.636Z,5.05
2018-07-15T06:49:07.132Z,4.80
2018-07-15T06:51:34.516Z,5.30
2018-07-15T06:54:01.983Z,5.00
2018-07-15T06:56:29.510Z,5.37
2018-07-15T06:58:57.211Z,5.60
2018-07-15T07:01:24.780Z,5.40
2018-07-15T07:03:52.166Z,5.28
2018-07-15T07:06:19.579Z,5.12
2018-07-15T07:08:46.965Z,5.03
2018-07-15T07:11:14.515Z,4.80
2018-07-15T07:13:41.915Z,5.10
2018-07-15T07:16:09.781Z,4.67
2018-07-15T07:18:37.243Z,4.97
2018-07-15T07:21:04.627Z,4.75
2018-07-15T07:23:32.153Z,4.95
2018-07-15T07:25:59.566Z,4.50
2018-07-15T07:28:27.191Z,5.00
2018-07-15T07:30:54.739Z,4.83
2018-07-15T07:33:22.219Z,4.60
2018-07-15T07:35:49.627Z,4.72
2018-07-15T07:38:17.202Z,4.30
2018-07-15T07:40:44.697Z,4.65
2018-07-15T07:43:12.133Z,4.58
2018-07-15T07:45:39.675Z,4.35
2018-07-15T07:48:07.075Z,4.10
2018-07-15T07:50:34.508Z,4.50
2018-07-15T07:53:01.985Z,5.10
2018-07-15T07:55:30.089Z,4.72
2018-07-15T07:57:57.507Z,5.22
2018-07-15T08:00:25.033Z,5.90
2018-07-15T08:02:52.425Z,4.97
2018-07-15T08:05:19.965Z,5.00
2018-07-15T08:07:47.424Z,4.97
2018-07-15T08:10:14.965Z,5.03
2018-07-15T08:12:42.338Z,5.15
2018-07-15T08:15:09.905Z,4.60
2018-07-15T08:17:37.313Z,4.17
2018-07-15T08:20:05.015Z,4.60
2018-07-15T08:22:32.561Z,4.20
2018-07-15T08:25:00.886Z,5.03
2018-07-15T08:27:28.255Z,4.65
2018-07-15T08:30:01.327Z,4.53
2018-07-15T08:32:28.759Z,4.50
2018-07-15T08:34:56.310Z,4.35
2018-07-15T08:37:24.418Z,4.83
2018-07-15T08:39:52.149Z,4.87
2018-07-15T08:42:19.515Z,5.03
2018-07-15T08:44:47.083Z,4.47
2018-07-15T08:47:15.159Z,4.28
2018-07-15T08:49:43.626Z,4.53
2018-07-15T08:52:11.360Z,4.40
2018-07-15T08:54:39.801Z,4.50
2018-07-15T08:57:07.304Z,3.98
2018-07-15T08:59:34.899Z,3.92
2018-07-15T09:04:37.803Z,4.15
2018-07-15T09:07:05.348Z,4.28
2018-07-15T09:09:32.777Z,4.10
2018-07-15T09:12:00.372Z,4.05
2018-07-15T09:14:27.998Z,4.25
2018-07-15T09:16:55.454Z,4.00
2018-07-15T09:19:22.867Z,3.98
2018-07-15T09:21:50.361Z,4.10
2018-07-15T09:24:18.195Z,3.98
2018-07-15T09:26:45.897Z,4.00
2018-07-15T09:29:13.578Z,3.87
2018-07-15T09:31:41.015Z,3.72
2018-07-15T09:34:08.427Z,3.70
2018-07-15T09:36:35.955Z,4.03
2018-07-15T09:39:04.496Z,4.22
2018-07-15T09:41:32.107Z,4.15
2018-07-15T09:43:59.547Z,4.15
2018-07-15T09:46:27.091Z,4.00
2018-07-15T09:48:54.496Z,4.40
2018-07-15T09:51:21.919Z,4.47
2018-07-15T09:53:49.431Z,4.47
2018-07-15T09:56:16.851Z,4.60
2018-07-15T09:58:44.310Z,5.10
2018-07-15T10:01:11.752Z,4.37
2018-07-15T10:03:39.249Z,4.62
2018-07-15T10:06:06.762Z,4.92
2018-07-15T10:08:34.140Z,4.92
2018-07-15T10:11:01.615Z,5.20
2018-07-15T10:13:29.124Z,4.90
2018-07-15T10:15:56.523Z,5.37
2018-07-15T10:18:23.976Z,4.80
2018-07-15T10:20:51.402Z,5.20
2018-07-15T10:23:19.403Z,5.30
2018-07-15T10:25:46.827Z,5.00
2018-07-15T10:28:14.223Z,5.08
2018-07-15T10:30:41.843Z,5.00
2018-07-15T10:33:09.300Z,4.90
2018-07-15T10:35:36.852Z,4.75
2018-07-15T10:38:04.934Z,4.65
2018-07-15T10:40:32.338Z,4.50
2018-07-15T10:42:59.743Z,4.85
2018-07-15T10:45:27.506Z,4.95
2018-07-15T10:47:55.085Z,4.50
2018-07-15T10:50:22.516Z,4.53
2018-07-15T10:52:50.236Z,4.80
2018-07-15T10:55:18.328Z,4.50
2018-07-15T10:57:45.807Z,4.90
2018-07-15T11:00:13.187Z,4.70
2018-07-15T11:02:40.631Z,4.60
2018-07-15T11:05:08.232Z,4.60
2018-07-15T11:07:35.853Z,4.70
2018-07-15T11:10:03.343Z,4.72
2018-07-15T11:12:30.767Z,4.58
2018-07-15T11:14:58.310Z,5.00
2018-07-15T11:17:25.750Z,4.42
2018-07-15T11:19:54.064Z,4.75
2018-07-15T11:22:21.897Z,4.45
2018-07-15T11:24:49.311Z,4.62
2018-07-15T11:27:17.410Z,4.75
2018-07-15T11:29:44.901Z,4.08
2018-07-15T11:32:13.277Z,4.25
2018-07-15T11:34:40.716Z,4.20
2018-07-15T11:37:08.105Z,4.30
2018-07-15T11:39:35.579Z,4.45
2018-07-15T11:42:03.101Z,4.37
2018-07-15T11:44:30.503Z,4.40
2018-07-15T11:46:58.347Z,4.55
2018-07-15T11:49:25.835Z,4.47
2018-07-15T11:51:53.765Z,4.53
2018-07-15T11:54:21.265Z,4.67
2018-07-15T11:56:49.300Z,4.60
2018-07-15T11:59:16.683Z,4.45
2018-07-15T12:01:44.314Z,4.33
2018-07-15T12:04:11.640Z,4.25
2018-07-15T12:06:39.028Z,4.67
2018-07-15T12:09:06.615Z,4.55
2018-07-15T12:11:34.987Z,4.70
2018-07-15T12:14:02.365Z,4.25
2018-07-15T12:16:29.902Z,4.40
2018-07-15T12:18:57.435Z,5.10
2018-07-15T12:21:24.839Z,4.37
2018-07-15T12:23:52.337Z,4.58
2018-07-15T12:26:20.043Z,5.03
2018-07-15T12:28:47.495Z,5.15
2018-07-15T12:31:15.615Z,6.45
2018-07-15T12:33:43.713Z,5.67
2018-07-15T12:36:11.108Z,6.08
2018-07-15T12:38:38.613Z,5.08
2018-07-15T12:41:06.334Z,6.25
2018-07-15T12:43:33.839Z,5.45
2018-07-15T12:46:01.236Z,5.70
2018-07-15T12:48:28.615Z,5.47
2018-07-15T12:50:56.131Z,5.50
2018-07-15T12:53:23.611Z,5.57
2018-07-15T12:55:51.039Z,5.70
2018-07-15T12:58:19.580Z,5.87
2018-07-15T13:00:47.032Z,5.45
2018-07-15T13:03:14.415Z,6.87
2018-07-15T13:05:41.819Z,8.80
2018-07-15T13:08:09.273Z,10.30
2018-07-15T13:10:36.655Z,10.27
2018-07-15T13:13:04.061Z,8.23
2018-07-15T13:15:31.534Z,8.37
2018-07-15T13:17:59.098Z,7.83
2018-07-15T13:20:26.808Z,8.57
2018-07-15T13:22:54.321Z,9.87
2018-07-15T13:25:21.751Z,8.43
2018-07-15T13:27:49.185Z,7.50
2018-07-15T13:30:16.644Z,8.83
2018-07-15T13:32:44.119Z,9.10
2018-07-15T13:35:11.516Z,8.47
2018-07-15T13:37:39.066Z,7.50
2018-07-15T13:40:06.593Z,6.60
2018-07-15T13:42:33.983Z,7.23
2018-07-15T13:45:01.496Z,6.63
2018-07-15T13:47:28.943Z,6.60
2018-07-15T13:49:56.422Z,8.17
2018-07-15T13:52:24.107Z,7.77
2018-07-15T13:54:51.647Z,6.00
2018-07-15T13:57:19.046Z,6.33
2018-07-15T13:59:46.545Z,6.80
2018-07-15T14:02:14.223Z,6.90
2018-07-15T14:04:41.685Z,6.23
2018-07-15T14:07:09.099Z,6.30
2018-07-15T14:09:36.587Z,5.33
2018-07-15T14:12:04.019Z,5.67
2018-07-15T14:14:31.435Z,5.17
2018-07-15T14:16:59.577Z,5.03
2018-07-15T14:19:27.122Z,5.27
2018-07-15T14:21:54.547Z,5.00
2018-07-15T14:24:21.983Z,4.60
2018-07-15T14:26:49.419Z,4.80
2018-07-15T14:29:17.443Z,4.87
2018-07-15T14:31:45.028Z,4.73
2018-07-15T14:34:12.427Z,4.77
2018-07-15T14:36:39.879Z,4.50
2018-07-15T14:39:07.395Z,4.63
2018-07-15T14:41:34.814Z,4.90
2018-07-15T14:44:02.258Z,5.00
2018-07-15T14:46:31.217Z,4.78
2018-07-15T14:48:58.671Z,5.10
2018-07-15T14:51:26.217Z,4.73
2018-07-15T14:53:53.642Z,4.70
2018-07-15T14:56:21.283Z,4.35
2018-07-15T14:58:48.843Z,4.40
2018-07-15T15:01:17.212Z,4.60
2018-07-15T15:03:44.953Z,4.17
2018-07-15T15:06:12.432Z,4.17
2018-07-15T15:08:39.839Z,4.30
2018-07-15T15:11:07.270Z,4.40
2018-07-15T15:13:34.811Z,4.22
2018-07-15T15:16:02.323Z,4.47
2018-07-15T15:18:29.699Z,4.67
2018-07-15T15:20:57.183Z,4.33
2018-07-15T15:23:24.579Z,4.30
2018-07-15T15:25:52.085Z,4.30
2018-07-15T15:28:19.601Z,4.03
2018-07-15T15:30:47.659Z,4.55
2018-07-15T15:33:15.143Z,4.10
2018-07-15T15:35:42.573Z,4.47
2018-07-15T15:38:09.973Z,4.58
2018-07-15T15:40:37.443Z,4.45
2018-07-15T15:43:04.919Z,4.60
2018-07-15T15:45:32.445Z,4.15
2018-07-15T15:48:00.711Z,4.67
2018-07-15T15:50:29.188Z,4.67
2018-07-15T15:52:56.659Z,4.30
2018-07-15T15:55:24.104Z,4.45
2018-07-15T15:57:51.504Z,4.22
2018-07-15T16:00:18.948Z,3.95
2018-07-15T16:02:46.403Z,4.10
2018-07-15T16:05:13.851Z,4.05
2018-07-15T16:07:41.308Z,4.15
2018-07-15T16:10:09.707Z,4.33
2018-07-15T16:12:37.300Z,4.37
2018-07-15T16:15:04.892Z,4.20
2018-07-15T16:17:32.602Z,4.35
2018-07-15T16:20:00.734Z,3.92
2018-07-15T16:22:28.187Z,4.30
2018-07-15T16:24:55.659Z,4.20
2018-07-15T16:27:23.107Z,3.83
2018-07-15T16:29:50.649Z,4.20
2018-07-15T16:32:18.071Z,4.00
2018-07-15T16:34:45.574Z,3.90
2018-07-15T16:37:13.636Z,3.80
2018-07-15T16:39:41.108Z,3.80
2018-07-15T16:42:08.542Z,3.87
2018-07-15T16:44:36.226Z,3.85
2018-07-15T16:47:03.711Z,3.92
2018-07-15T16:49:31.107Z,3.70
2018-07-15T16:51:58.638Z,3.85
2018-07-15T16:54:26.071Z,4.05
2018-07-15T16:56:54.202Z,3.80
2018-07-15T16:59:21.595Z,3.85
2018-07-15T17:01:49.083Z,3.95
2018-07-15T17:04:16.519Z,3.62
2018-07-15T17:06:43.927Z,3.75
2018-07-15T17:09:11.339Z,3.92
2018-07-15T17:11:38.887Z,3.80
2018-07-15T17:14:06.699Z,3.90
2018-07-15T17:16:34.448Z,4.00
2018-07-15T17:19:01.856Z,3.72
2018-07-15T17:21:29.317Z,3.50
2018-07-15T17:23:56.939Z,3.70
2018-07-15T17:26:24.470Z,3.40
2018-07-15T17:28:51.871Z,3.58
2018-07-15T17:31:19.319Z,3.60
2018-07-15T17:33:46.985Z,3.45
2018-07-15T17:36:14.393Z,3.60
2018-07-15T17:38:42.363Z,3.72
2018-07-15T17:41:09.740Z,3.45
2018-07-15T17:43:37.329Z,3.67
2018-07-15T17:46:04.844Z,3.47
2018-07-15T17:48:32.264Z,3.75
2018-07-15T17:50:59.721Z,3.40
2018-07-15T17:53:27.210Z,3.50
2018-07-15T17:55:54.631Z,3.20
2018-07-15T17:58:22.187Z,3.20
2018-07-15T18:00:49.671Z,3.50
2018-07-15T18:03:17.043Z,3.37
2018-07-15T18:05:44.427Z,3.47
2018-07-15T18:08:11.834Z,3.47
2018-07-15T18:10:39.290Z,3.72
2018-07-15T18:13:06.939Z,3.50
2018-07-15T18:15:34.399Z,3.50
2018-07-15T18:18:02.222Z,3.37
2018-07-15T18:20:29.637Z,3.80
2018-07-15T18:22:57.099Z,3.58
2018-07-15T18:25:24.586Z,3.80
2018-07-15T18:27:52.007Z,3.70
2018-07-15T18:30:19.504Z,3.62
2018-07-15T18:32:46.930Z,3.60
2018-07-15T18:35:14.313Z,3.60
2018-07-15T18:37:41.951Z,3.50
2018-07-15T18:40:09.363Z,3.50
2018-07-15T18:42:36.858Z,4.00
2018-07-15T18:45:04.296Z,3.40
2018-07-15T18:47:31.671Z,3.80
2018-07-15T18:49:59.115Z,4.10
2018-07-15T18:52:26.543Z,3.60
2018-07-15T18:54:54.215Z,3.60
2018-07-15T18:57:21.611Z,3.90
2018-07-15T18:59:49.120Z,3.43
2018-07-15T19:02:17.136Z,3.43
2018-07-15T19:04:44.521Z,3.80
2018-07-15T19:07:12.153Z,3.67
2018-07-15T19:09:39.583Z,4.00
2018-07-15T19:12:07.039Z,3.70
2018-07-15T19:14:34.441Z,3.90
2018-07-15T19:17:01.856Z,3.40
2018-07-15T19:19:29.411Z,3.60
2018-07-15T19:21:56.824Z,3.60
2018-07-15T19:24:24.231Z,3.27
2018-07-15T19:26:51.833Z,3.83
2018-07-15T19:29:19.699Z,3.60
2018-07-15T19:31:47.291Z,3.60
2018-07-15T19:34:14.875Z,3.80
2018-07-15T19:36:42.303Z,3.77
2018-07-15T19:39:09.819Z,3.93
2018-07-15T19:41:37.283Z,3.87
2018-07-15T19:44:05.395Z,3.90
2018-07-15T19:46:32.814Z,3.90
2018-07-15T19:49:00.327Z,3.90
2018-07-15T19:51:27.752Z,3.57
2018-07-15T19:53:55.157Z,3.77
2018-07-15T19:56:22.971Z,3.90
2018-07-15T19:58:50.376Z,4.20
2018-07-15T20:01:17.953Z,3.93
2018-07-15T20:03:45.311Z,4.17
2018-07-15T20:06:13.072Z,4.30
2018-07-15T20:08:40.458Z,4.30
2018-07-15T20:11:07.833Z,4.10
2018-07-15T20:13:35.218Z,4.20
2018-07-15T20:16:02.631Z,3.93
2018-07-15T20:18:30.035Z,4.30
2018-07-15T20:20:57.467Z,4.20
2018-07-15T20:23:24.935Z,4.00
2018-07-15T20:25:53.023Z,4.07
2018-07-15T20:28:21.019Z,4.10
2018-07-15T20:30:48.537Z,4.23
2018-07-15T20:33:16.100Z,4.00
2018-07-15T20:35:43.644Z,4.10
2018-07-15T20:38:11.031Z,4.00
2018-07-15T20:40:38.469Z,4.40
2018-07-15T20:43:05.957Z,4.10
2018-07-15T20:45:34.308Z,4.50
2018-07-15T20:48:01.715Z,3.80
2018-07-15T20:50:29.179Z,4.30
2018-07-15T20:52:56.667Z,4.00
2018-07-15T20:55:24.052Z,4.20
2018-07-15T20:57:51.965Z,4.40
2018-07-15T21:00:19.573Z,4.03
2018-07-15T21:02:47.133Z,4.10
2018-07-15T21:05:14.608Z,3.90
2018-07-15T21:07:42.037Z,4.27
2018-07-15T21:10:09.434Z,4.10
2018-07-15T21:12:36.866Z,3.90
2018-07-15T21:15:04.280Z,4.00
2018-07-15T21:17:31.936Z,4.10
2018-07-15T21:19:59.335Z,4.30
2018-07-15T21:22:26.715Z,4.03
2018-07-15T21:24:54.279Z,4.03
2018-07-15T21:27:21.688Z,3.90
2018-07-15T21:29:49.241Z,4.20
2018-07-15T21:32:16.935Z,3.83
2018-07-15T21:34:44.505Z,4.10
2018-07-15T21:37:11.916Z,4.03
2018-07-15T21:39:39.332Z,4.00
2018-07-15T21:42:06.703Z,4.10
2018-07-15T21:44:34.135Z,4.20
2018-07-15T21:47:02.283Z,4.20
2018-07-15T21:49:29.663Z,4.20
2018-07-15T21:51:57.179Z,4.33
2018-07-15T21:54:24.584Z,4.20
2018-07-15T21:56:52.106Z,4.27
2018-07-15T21:59:19.551Z,4.10
2018-07-15T22:01:47.027Z,4.57
2018-07-15T22:04:14.469Z,4.07
2018-07-15T22:06:47.469Z,4.13
2018-07-15T22:09:20.528Z,4.03
2018-07-15T22:11:47.986Z,4.70
2018-07-15T22:14:15.696Z,4.60
2018-07-15T22:16:43.115Z,4.50
2018-07-15T22:19:10.669Z,4.37
2018-07-15T22:21:38.103Z,4.27
2018-07-15T22:24:06.323Z,4.20
2018-07-15T22:26:33.699Z,4.33
2018-07-15T22:29:02.406Z,4.70
2018-07-15T22:31:29.883Z,4.43
2018-07-15T22:33:57.557Z,4.67
2018-07-15T22:36:25.259Z,5.63
2018-07-15T22:38:52.643Z,4.77
2018-07-15T22:41:20.019Z,4.53
2018-07-15T22:43:47.547Z,4.97
2018-07-15T22:46:15.067Z,4.70
2018-07-15T22:48:42.536Z,4.97
2018-07-15T22:51:10.017Z,4.63
2018-07-15T22:53:37.437Z,4.90
2018-07-15T22:56:05.113Z,4.67
2018-07-15T22:58:32.675Z,5.00
2018-07-15T23:01:00.094Z,4.70
2018-07-15T23:03:27.590Z,4.70
2018-07-15T23:06:00.832Z,4.70
2018-07-15T23:08:30.411Z,5.27
2018-07-15T23:10:59.159Z,4.63
2018-07-15T23:13:26.674Z,5.13
2018-07-15T23:15:54.381Z,5.33
2018-07-15T23:18:22.146Z,4.97
2018-07-15T23:20:50.300Z,5.30
2018-07-15T23:23:17.980Z,5.50
2018-07-15T23:25:45.526Z,5.67
2018-07-15T23:28:15.075Z,5.60
2018-07-15T23:30:43.116Z,5.00
2018-07-15T23:33:11.198Z,5.30
2018-07-15T23:35:38.624Z,5.60
2018-07-15T23:38:06.059Z,5.10
2018-07-15T23:40:33.559Z,5.60
2018-07-15T23:43:01.668Z,4.97
2018-07-15T23:45:30.311Z,4.77
2018-07-15T23:47:58.107Z,5.33
2018-07-15T23:50:25.624Z,5.60
2018-07-15T23:52:53.088Z,4.80
2018-07-15T23:55:21.070Z,5.20
2018-07-15T23:57:48.566Z,4.93
